Terminal Aerodrome Forecast
Issued by NWS Caribou, ME

Home | Current Version | Previous Version | Text Only | Print | Product List | Glossary On
Versions: 1 2 3 4 5 6 7 8 9 10 11 12 13 14 15 16
000
FTUS41 KCAR 030521
TAFBGR
TAF
KBGR 030521Z 0306/0406 30019G31KT P6SM SKC
     FM030700 29014G24KT P6SM SKC
     FM031200 27008KT P6SM SKC
     FM032200 18006KT P6SM OVC050
     FM040300 19006KT 5SM -SN OVC030=

USA.gov is the U.S. government's official web portal to all federal, state and local government web resources and services.